sensor_id;sensor_type;location;lat;lon;timestamp;pressure;altitude;pressure_sealevel;temperature;humidity
77706;BME280;66874;45.274;5.880;2023-10-19T00:01:53;97535.53;;;15.40;82.28
77706;BME280;66874;45.274;5.880;2023-10-19T00:04:19;97543.56;;;15.38;82.33
77706;BME280;66874;45.274;5.880;2023-10-19T00:06:47;97542.91;;;15.35;82.66
77706;BME280;66874;45.274;5.880;2023-10-19T00:09:14;97545.53;;;15.35;82.59
77706;BME280;66874;45.274;5.880;2023-10-19T00:11:40;97542.97;;;15.33;82.73
77706;BME280;66874;45.274;5.880;2023-10-19T00:14:06;97547.63;;;15.30;82.95
77706;BME280;66874;45.274;5.880;2023-10-19T00:16:42;97553.63;;;15.32;82.92
77706;BME280;66874;45.274;5.880;2023-10-19T00:19:10;97555.13;;;15.36;82.86
77706;BME280;66874;45.274;5.880;2023-10-19T00:21:36;97552.31;;;15.39;82.85
77706;BME280;66874;45.274;5.880;2023-10-19T00:24:20;97541.56;;;15.42;82.69
77706;BME280;66874;45.274;5.880;2023-10-19T00:26:47;97544.88;;;15.46;82.85
77706;BME280;66874;45.274;5.880;2023-10-19T00:29:22;97550.78;;;15.49;82.81
77706;BME280;66874;45.274;5.880;2023-10-19T00:32:00;97543.63;;;15.51;82.67
77706;BME280;66874;45.274;5.880;2023-10-19T00:34:28;97539.28;;;15.50;82.69
77706;BME280;66874;45.274;5.880;2023-10-19T00:36:54;97534.75;;;15.52;82.71
77706;BME280;66874;45.274;5.880;2023-10-19T00:39:26;97527.63;;;15.54;82.64
77706;BME280;66874;45.274;5.880;2023-10-19T00:41:52;97527.63;;;15.54;82.74
77706;BME280;66874;45.274;5.880;2023-10-19T00:44:22;97517.81;;;15.56;83.04
77706;BME280;66874;45.274;5.880;2023-10-19T00:46:56;97508.31;;;15.54;82.63
77706;BME280;66874;45.274;5.880;2023-10-19T00:49:30;97503.13;;;15.52;82.77
77706;BME280;66874;45.274;5.880;2023-10-19T00:51:58;97500.72;;;15.49;82.97
77706;BME280;66874;45.274;5.880;2023-10-19T00:54:35;97490.38;;;15.46;82.90
77706;BME280;66874;45.274;5.880;2023-10-19T00:57:03;97484.44;;;15.43;82.93
77706;BME280;66874;45.274;5.880;2023-10-19T00:59:37;97477.56;;;15.40;83.16
77706;BME280;66874;45.274;5.880;2023-10-19T01:02:19;97479.47;;;15.38;83.00
77706;BME280;66874;45.274;5.880;2023-10-19T01:04:48;97466.19;;;15.39;82.96
77706;BME280;66874;45.274;5.880;2023-10-19T01:07:30;97459.25;;;15.38;83.21
77706;BME280;66874;45.274;5.880;2023-10-19T01:10:02;97460.06;;;15.39;83.33
77706;BME280;66874;45.274;5.880;2023-10-19T01:12:31;97453.78;;;15.42;83.04
77706;BME280;66874;45.274;5.880;2023-10-19T01:15:05;97444.09;;;15.42;83.16
77706;BME280;66874;45.274;5.880;2023-10-19T01:17:51;97442.19;;;15.44;83.09
77706;BME280;66874;45.274;5.880;2023-10-19T01:20:20;97436.81;;;15.46;83.13
77706;BME280;66874;45.274;5.880;2023-10-19T01:23:06;97438.50;;;15.47;83.16
77706;BME280;66874;45.274;5.880;2023-10-19T01:28:09;97423.72;;;15.44;83.15
77706;BME280;66874;45.274;5.880;2023-10-19T01:30:35;97415.09;;;15.42;83.09
77706;BME280;66874;45.274;5.880;2023-10-19T01:33:02;97415.19;;;15.41;83.19
77706;BME280;66874;45.274;5.880;2023-10-19T01:35:29;97420.38;;;15.42;83.31
77706;BME280;66874;45.274;5.880;2023-10-19T01:38:14;97410.56;;;15.44;83.23
77706;BME280;66874;45.274;5.880;2023-10-19T01:40:40;97423.66;;;15.46;83.34
77706;BME280;66874;45.274;5.880;2023-10-19T01:43:12;97412.34;;;15.44;83.41
77706;BME280;66874;45.274;5.880;2023-10-19T01:45:46;97414.16;;;15.43;83.53
77706;BME280;66874;45.274;5.880;2023-10-19T01:48:12;97413.19;;;15.44;83.25
77706;BME280;66874;45.274;5.880;2023-10-19T01:50:39;97418.38;;;15.46;83.50
77706;BME280;66874;45.274;5.880;2023-10-19T01:53:04;97409.72;;;15.44;83.40
77706;BME280;66874;45.274;5.880;2023-10-19T01:55:38;97413.19;;;15.44;83.59
77706;BME280;66874;45.274;5.880;2023-10-19T01:58:03;97398.13;;;15.46;83.47
77706;BME280;66874;45.274;5.880;2023-10-19T02:00:29;97398.97;;;15.47;83.73
77706;BME280;66874;45.274;5.880;2023-10-19T02:02:54;97399.81;;;15.47;83.49
77706;BME280;66874;45.274;5.880;2023-10-19T02:05:21;97396.34;;;15.47;83.55
77706;BME280;66874;45.274;5.880;2023-10-19T02:07:47;97400.66;;;15.48;83.56
77706;BME280;66874;45.274;5.880;2023-10-19T02:10:12;97400.47;;;15.51;83.84
77706;BME280;66874;45.274;5.880;2023-10-19T02:12:38;97400.34;;;15.52;83.55
77706;BME280;66874;45.274;5.880;2023-10-19T02:15:07;97398.59;;;15.53;83.63
77706;BME280;66874;45.274;5.880;2023-10-19T02:17:33;97395.00;;;15.54;83.64
77706;BME280;66874;45.274;5.880;2023-10-19T02:19:59;97403.63;;;15.56;83.51
77706;BME280;66874;45.274;5.880;2023-10-19T02:22:24;97401.00;;;15.56;83.41
77706;BME280;66874;45.274;5.880;2023-10-19T02:24:50;97398.38;;;15.56;83.53
77706;BME280;66874;45.274;5.880;2023-10-19T02:27:15;97383.38;;;15.56;83.38
77706;BME280;66874;45.274;5.880;2023-10-19T02:29:40;97374.75;;;15.54;83.39
77706;BME280;66874;45.274;5.880;2023-10-19T02:32:07;97376.00;;;15.49;83.75
77706;BME280;66874;45.274;5.880;2023-10-19T02:34:32;97373.47;;;15.47;83.83
77706;BME280;66874;45.274;5.880;2023-10-19T02:37:00;97370.72;;;15.49;83.85
77706;BME280;66874;45.274;5.880;2023-10-19T02:39:26;97363.69;;;15.49;83.90
77706;BME280;66874;45.274;5.880;2023-10-19T02:41:53;97356.63;;;15.50;83.96
77706;BME280;66874;45.274;5.880;2023-10-19T02:44:20;97351.22;;;15.51;83.76
77706;BME280;66874;45.274;5.880;2023-10-19T02:46:55;97350.50;;;15.49;83.50
77706;BME280;66874;45.274;5.880;2023-10-19T02:49:34;97341.84;;;15.47;83.69
77706;BME280;66874;45.274;5.880;2023-10-19T02:52:05;97331.19;;;15.49;83.95
77706;BME280;66874;45.274;5.880;2023-10-19T02:54:30;97331.41;;;15.46;84.03
77706;BME280;66874;45.274;5.880;2023-10-19T02:56:58;97315.59;;;15.46;83.95
77706;BME280;66874;45.274;5.880;2023-10-19T02:59:25;97313.81;;;15.46;83.85
77706;BME280;66874;45.274;5.880;2023-10-19T03:01:54;97310.34;;;15.46;83.88
77706;BME280;66874;45.274;5.880;2023-10-19T03:04:26;97300.72;;;15.45;83.85
77706;BME280;66874;45.274;5.880;2023-10-19T03:06:53;97305.06;;;15.46;83.87
77706;BME280;66874;45.274;5.880;2023-10-19T03:09:19;97292.09;;;15.43;83.91
77706;BME280;66874;45.274;5.880;2023-10-19T03:11:54;97287.78;;;15.42;84.04
77706;BME280;66874;45.274;5.880;2023-10-19T03:14:22;97281.75;;;15.39;84.14
77706;BME280;66874;45.274;5.880;2023-10-19T03:16:50;97281.75;;;15.39;84.33
77706;BME280;66874;45.274;5.880;2023-10-19T03:19:16;97285.16;;;15.42;84.32
77706;BME280;66874;45.274;5.880;2023-10-19T03:21:41;97271.00;;;15.43;84.18
77706;BME280;66874;45.274;5.880;2023-10-19T03:24:14;97276.28;;;15.43;84.29
77706;BME280;66874;45.274;5.880;2023-10-19T03:26:51;97285.03;;;15.43;84.27
77706;BME280;66874;45.274;5.880;2023-10-19T03:29:16;97289.53;;;15.41;84.37
77706;BME280;66874;45.274;5.880;2023-10-19T03:31:50;97271.22;;;15.39;84.29
77706;BME280;66874;45.274;5.880;2023-10-19T03:34:16;97275.75;;;15.37;84.31
77706;BME280;66874;45.274;5.880;2023-10-19T03:36:44;97282.78;;;15.37;84.46
77706;BME280;66874;45.274;5.880;2023-10-19T03:39:10;97280.28;;;15.35;84.35
77706;BME280;66874;45.274;5.880;2023-10-19T03:41:40;97290.06;;;15.33;84.49
77706;BME280;66874;45.274;5.880;2023-10-19T03:44:12;97282.16;;;15.33;84.58
77706;BME280;66874;45.274;5.880;2023-10-19T03:46:53;97289.31;;;15.31;84.78
77706;BME280;66874;45.274;5.880;2023-10-19T03:49:20;97290.28;;;15.30;84.71
77706;BME280;66874;45.274;5.880;2023-10-19T03:51:46;97289.44;;;15.30;84.67
77706;BME280;66874;45.274;5.880;2023-10-19T03:54:36;97276.47;;;15.27;84.61
77706;BME280;66874;45.274;5.880;2023-10-19T03:57:12;97277.13;;;15.30;84.60
77706;BME280;66874;45.274;5.880;2023-10-19T03:59:41;97269.09;;;15.32;84.64
77706;BME280;66874;45.274;5.880;2023-10-19T04:02:09;97269.84;;;15.34;84.59
77706;BME280;66874;45.274;5.880;2023-10-19T04:04:55;97270.69;;;15.34;84.61
77706;BME280;66874;45.274;5.880;2023-10-19T04:07:22;97261.81;;;15.35;84.59
77706;BME280;66874;45.274;5.880;2023-10-19T04:09:53;97260.88;;;15.36;84.72
77706;BME280;66874;45.274;5.880;2023-10-19T04:12:42;97252.03;;;15.37;84.68
77706;BME280;66874;45.274;5.880;2023-10-19T04:15:09;97244.97;;;15.38;84.38
77706;BME280;66874;45.274;5.880;2023-10-19T04:17:42;97230.97;;;15.37;84.62
77706;BME280;66874;45.274;5.880;2023-10-19T04:20:09;97225.06;;;15.34;84.73
77706;BME280;66874;45.274;5.880;2023-10-19T04:22:53;97207.97;;;15.27;84.64
77706;BME280;66874;45.274;5.880;2023-10-19T04:25:19;97212.41;;;15.26;84.97
77706;BME280;66874;45.274;5.880;2023-10-19T04:27:46;97214.28;;;15.24;84.91
77706;BME280;66874;45.274;5.880;2023-10-19T04:30:13;97212.50;;;15.25;84.81
77706;BME280;66874;45.274;5.880;2023-10-19T04:32:45;97212.28;;;15.28;85.02
77706;BME280;66874;45.274;5.880;2023-10-19T04:35:12;97215.69;;;15.30;85.06
77706;BME280;66874;45.274;5.880;2023-10-19T04:37:48;97200.06;;;15.27;85.02
77706;BME280;66874;45.274;5.880;2023-10-19T04:40:13;97188.78;;;15.25;84.83
77706;BME280;66874;45.274;5.880;2023-10-19T04:42:39;97182.78;;;15.23;85.00
77706;BME280;66874;45.274;5.880;2023-10-19T04:45:04;97186.34;;;15.22;84.98
77706;BME280;66874;45.274;5.880;2023-10-19T04:47:31;97174.91;;;15.23;84.87
77706;BME280;66874;45.274;5.880;2023-10-19T04:49:58;97167.91;;;15.22;84.83
77706;BME280;66874;45.274;5.880;2023-10-19T04:52:23;97160.25;;;15.19;84.59
77706;BME280;66874;45.274;5.880;2023-10-19T04:54:48;97159.69;;;15.13;84.73
77706;BME280;66874;45.274;5.880;2023-10-19T04:57:14;97152.75;;;15.12;84.71
77706;BME280;66874;45.274;5.880;2023-10-19T04:59:39;97154.63;;;15.10;85.15
77706;BME280;66874;45.274;5.880;2023-10-19T05:02:05;97146.84;;;15.09;84.99
77706;BME280;66874;45.274;5.880;2023-10-19T05:04:31;97143.38;;;15.08;84.79
77706;BME280;66874;45.274;5.880;2023-10-19T05:06:56;97152.56;;;15.03;85.06
77706;BME280;66874;45.274;5.880;2023-10-19T05:09:22;97164.84;;;15.02;85.07
77706;BME280;66874;45.274;5.880;2023-10-19T05:11:47;97165.78;;;15.01;85.11
77706;BME280;66874;45.274;5.880;2023-10-19T05:14:13;97158.84;;;15.00;85.12
77706;BME280;66874;45.274;5.880;2023-10-19T05:16:39;97159.88;;;14.98;85.12
77706;BME280;66874;45.274;5.880;2023-10-19T05:19:05;97151.16;;;14.97;85.02
77706;BME280;66874;45.274;5.880;2023-10-19T05:21:30;97159.06;;;14.97;85.08
77706;BME280;66874;45.274;5.880;2023-10-19T05:23:56;97163.47;;;14.97;85.22
77706;BME280;66874;45.274;5.880;2023-10-19T05:26:21;97161.69;;;14.97;85.29
77706;BME280;66874;45.274;5.880;2023-10-19T05:28:47;97155.59;;;14.97;85.22
77706;BME280;66874;45.274;5.880;2023-10-19T05:31:13;97158.34;;;14.95;85.46
77706;BME280;66874;45.274;5.880;2023-10-19T05:33:39;97158.34;;;14.95;85.47
77706;BME280;66874;45.274;5.880;2023-10-19T05:36:05;97160.66;;;15.00;85.76
77706;BME280;66874;45.274;5.880;2023-10-19T05:38:31;97142.84;;;15.03;85.53
77706;BME280;66874;45.274;5.880;2023-10-19T05:40:57;97123.25;;;15.07;85.52
77706;BME280;66874;45.274;5.880;2023-10-19T05:43:24;97132.63;;;15.11;85.24
77706;BME280;66874;45.274;5.880;2023-10-19T05:45:50;97119.34;;;15.13;85.13
77706;BME280;66874;45.274;5.880;2023-10-19T05:48:16;97126.63;;;15.09;85.38
77706;BME280;66874;45.274;5.880;2023-10-19T05:50:42;97119.56;;;15.10;85.35
77706;BME280;66874;45.274;5.880;2023-10-19T05:53:08;97129.16;;;15.11;85.38
77706;BME280;66874;45.274;5.880;2023-10-19T05:55:33;97123.03;;;15.10;85.44
77706;BME280;66874;45.274;5.880;2023-10-19T05:58:01;97119.34;;;15.13;85.45
77706;BME280;66874;45.274;5.880;2023-10-19T06:00:29;97105.34;;;15.12;85.50
77706;BME280;66874;45.274;5.880;2023-10-19T06:02:55;97101.97;;;15.10;85.54
77706;BME280;66874;45.274;5.880;2023-10-19T06:05:21;97093.22;;;15.10;85.38
77706;BME280;66874;45.274;5.880;2023-10-19T06:07:48;97085.31;;;15.10;85.43
77706;BME280;66874;45.274;5.880;2023-10-19T06:10:16;97082.81;;;15.08;85.40
77706;BME280;66874;45.274;5.880;2023-10-19T06:12:46;97088.91;;;15.09;85.30
77706;BME280;66874;45.274;5.880;2023-10-19T06:15:12;97105.66;;;15.08;85.27
77706;BME280;66874;45.274;5.880;2023-10-19T06:17:39;97107.56;;;15.06;85.24
77706;BME280;66874;45.274;5.880;2023-10-19T06:20:07;97106.19;;;15.00;85.26
77706;BME280;66874;45.274;5.880;2023-10-19T06:22:35;97098.38;;;14.99;85.33
77706;BME280;66874;45.274;5.880;2023-10-19T06:25:01;97101.00;;;14.99;85.37
77706;BME280;66874;45.274;5.880;2023-10-19T06:27:28;97103.56;;;15.00;85.43
77706;BME280;66874;45.274;5.880;2023-10-19T06:29:55;97095.66;;;15.00;85.45
77706;BME280;66874;45.274;5.880;2023-10-19T06:32:20;97106.00;;;15.03;85.28
77706;BME280;66874;45.274;5.880;2023-10-19T06:34:46;97108.38;;;15.06;85.36
77706;BME280;66874;45.274;5.880;2023-10-19T06:37:11;97109.34;;;15.05;85.50
77706;BME280;66874;45.274;5.880;2023-10-19T06:39:37;97111.88;;;15.07;85.08
77706;BME280;66874;45.274;5.880;2023-10-19T06:42:06;97111.97;;;15.05;85.42
77706;BME280;66874;45.274;5.880;2023-10-19T06:44:35;97108.50;;;15.05;85.64
77706;BME280;66874;45.274;5.880;2023-10-19T06:47:01;97115.25;;;15.09;85.42
77706;BME280;66874;45.274;5.880;2023-10-19T06:49:26;97113.38;;;15.11;85.45
77706;BME280;66874;45.274;5.880;2023-10-19T06:51:54;97094.81;;;15.12;85.42
77706;BME280;66874;45.274;5.880;2023-10-19T06:54:19;97088.59;;;15.13;85.61
77706;BME280;66874;45.274;5.880;2023-10-19T06:56:45;97079.84;;;15.13;85.72
77706;BME280;66874;45.274;5.880;2023-10-19T06:59:10;97084.16;;;15.14;85.67
77706;BME280;66874;45.274;5.880;2023-10-19T07:01:36;97075.53;;;15.12;85.68
77706;BME280;66874;45.274;5.880;2023-10-19T07:04:01;97058.78;;;15.13;85.74
77706;BME280;66874;45.274;5.880;2023-10-19T07:06:27;97059.53;;;15.15;85.73
77706;BME280;66874;45.274;5.880;2023-10-19T07:08:53;97069.75;;;15.20;85.66
77706;BME280;66874;45.274;5.880;2023-10-19T07:11:18;97071.00;;;15.27;85.49
77706;BME280;66874;45.274;5.880;2023-10-19T07:13:43;97074.78;;;15.35;85.40
77706;BME280;66874;45.274;5.880;2023-10-19T07:16:12;97072.44;;;15.44;85.32
77706;BME280;66874;45.274;5.880;2023-10-19T07:18:38;97064.94;;;15.50;85.02
77706;BME280;66874;45.274;5.880;2023-10-19T07:21:04;97069.91;;;15.55;85.03
77706;BME280;66874;45.274;5.880;2023-10-19T07:23:31;97076.22;;;15.65;85.06
77706;BME280;66874;45.274;5.880;2023-10-19T07:25:56;97078.69;;;15.79;84.91
77706;BME280;66874;45.274;5.880;2023-10-19T07:28:25;97069.31;;;15.88;84.75
77706;BME280;66874;45.274;5.880;2023-10-19T07:30:52;97067.28;;;15.92;84.57
77706;BME280;66874;45.274;5.880;2023-10-19T07:33:18;97071.47;;;15.94;84.64
77706;BME280;66874;45.274;5.880;2023-10-19T07:35:45;97082.56;;;15.99;84.52
77706;BME280;66874;45.274;5.880;2023-10-19T07:38:17;97077.66;;;16.06;84.40
77706;BME280;66874;45.274;5.880;2023-10-19T07:40:46;97067.84;;;16.08;84.34
77706;BME280;66874;45.274;5.880;2023-10-19T07:43:11;97074.72;;;16.10;84.48
77706;BME280;66874;45.274;5.880;2023-10-19T07:45:37;97070.91;;;16.15;84.54
77706;BME280;66874;45.274;5.880;2023-10-19T07:48:04;97076.25;;;16.13;84.48
77706;BME280;66874;45.274;5.880;2023-10-19T07:50:36;97065.31;;;16.06;84.52
77706;BME280;66874;45.274;5.880;2023-10-19T07:53:03;97065.66;;;16.02;84.47
77706;BME280;66874;45.274;5.880;2023-10-19T07:55:29;97072.72;;;16.01;84.76
77706;BME280;66874;45.274;5.880;2023-10-19T07:57:57;97064.81;;;16.01;84.71
77706;BME280;66874;45.274;5.880;2023-10-19T08:00:25;97038.22;;;16.04;84.76
77706;BME280;66874;45.274;5.880;2023-10-19T08:02:52;97047.94;;;16.04;84.87
77706;BME280;66874;45.274;5.880;2023-10-19T08:05:18;97049.25;;;16.09;84.61
77706;BME280;66874;45.274;5.880;2023-10-19T08:07:44;97049.66;;;16.16;84.27
77706;BME280;66874;45.274;5.880;2023-10-19T08:10:10;97051.88;;;16.22;84.31
77706;BME280;66874;45.274;5.880;2023-10-19T08:12:40;97037.00;;;16.32;84.23
77706;BME280;66874;45.274;5.880;2023-10-19T08:15:09;97014.34;;;16.41;84.08
77706;BME280;66874;45.274;5.880;2023-10-19T08:17:42;97001.19;;;16.52;84.06
77706;BME280;66874;45.274;5.880;2023-10-19T08:20:09;97012.53;;;16.66;84.04
77706;BME280;66874;45.274;5.880;2023-10-19T08:22:36;97010.63;;;16.79;83.70
77706;BME280;66874;45.274;5.880;2023-10-19T08:25:05;96999.84;;;16.93;83.56
77706;BME280;66874;45.274;5.880;2023-10-19T08:27:38;96987.03;;;17.11;83.17
77706;BME280;66874;45.274;5.880;2023-10-19T08:30:05;96969.69;;;17.29;82.98
77706;BME280;66874;45.274;5.880;2023-10-19T08:32:32;96967.03;;;17.29;82.47
77706;BME280;66874;45.274;5.880;2023-10-19T08:34:58;96962.88;;;17.16;82.38
77706;BME280;66874;45.274;5.880;2023-10-19T08:37:23;96963.84;;;17.26;82.62
77706;BME280;66874;45.274;5.880;2023-10-19T08:39:49;96953.50;;;17.34;82.33
77706;BME280;66874;45.274;5.880;2023-10-19T08:42:15;96949.75;;;17.37;82.58
77706;BME280;66874;45.274;5.880;2023-10-19T08:44:41;96945.44;;;17.36;82.26
77706;BME280;66874;45.274;5.880;2023-10-19T08:47:06;96938.34;;;17.36;82.10
77706;BME280;66874;45.274;5.880;2023-10-19T08:49:31;96942.31;;;17.42;82.03
77706;BME280;66874;45.274;5.880;2023-10-19T08:51:58;96950.91;;;17.55;81.65
77706;BME280;66874;45.274;5.880;2023-10-19T08:54:24;96952.22;;;17.61;81.18
77706;BME280;66874;45.274;5.880;2023-10-19T08:56:51;96946.06;;;17.60;80.95
77706;BME280;66874;45.274;5.880;2023-10-19T08:59:17;96938.72;;;17.64;81.28
77706;BME280;66874;45.274;5.880;2023-10-19T09:01:42;96953.38;;;17.79;80.89
77706;BME280;66874;45.274;5.880;2023-10-19T09:04:11;96971.25;;;17.87;80.49
77706;BME280;66874;45.274;5.880;2023-10-19T09:06:50;96975.97;;;17.83;80.89
77706;BME280;66874;45.274;5.880;2023-10-19T09:09:18;96991.00;;;17.83;80.95
77706;BME280;66874;45.274;5.880;2023-10-19T09:11:49;96988.25;;;17.84;80.93
77706;BME280;66874;45.274;5.880;2023-10-19T09:14:31;96973.47;;;17.81;80.97
77706;BME280;66874;45.274;5.880;2023-10-19T09:17:08;96979.13;;;17.77;80.87
77706;BME280;66874;45.274;5.880;2023-10-19T09:19:42;96993.78;;;17.70;81.14
77706;BME280;66874;45.274;5.880;2023-10-19T09:22:09;96991.13;;;17.70;81.44
77706;BME280;66874;45.274;5.880;2023-10-19T09:24:53;96976.72;;;17.63;81.21
77706;BME280;66874;45.274;5.880;2023-10-19T09:27:22;96975.28;;;17.58;81.06
77706;BME280;66874;45.274;5.880;2023-10-19T09:29:48;96966.53;;;17.58;81.02
77706;BME280;66874;45.274;5.880;2023-10-19T09:32:15;96958.47;;;17.60;81.25
77706;BME280;66874;45.274;5.880;2023-10-19T09:34:44;96977.44;;;17.65;81.37
77706;BME280;66874;45.274;5.880;2023-10-19T09:37:11;96959.41;;;17.70;81.03
77706;BME280;66874;45.274;5.880;2023-10-19T09:39:37;96961.59;;;17.76;81.27
77706;BME280;66874;45.274;5.880;2023-10-19T09:42:06;96966.09;;;17.85;81.06
77706;BME280;66874;45.274;5.880;2023-10-19T09:44:42;96948.53;;;17.95;80.78
77706;BME280;66874;45.274;5.880;2023-10-19T09:47:13;96948.13;;;18.00;80.59
77706;BME280;66874;45.274;5.880;2023-10-19T09:49:42;96952.78;;;18.08;80.48
77706;BME280;66874;45.274;5.880;2023-10-19T09:52:10;96965.63;;;18.12;80.38
77706;BME280;66874;45.274;5.880;2023-10-19T09:57:35;96944.41;;;18.23;79.82
77706;BME280;66874;45.274;5.880;2023-10-19T10:00:04;96951.13;;;18.27;79.80
77706;BME280;66874;45.274;5.880;2023-10-19T10:02:49;96961.75;;;18.37;79.76
77706;BME280;66874;45.274;5.880;2023-10-19T10:10:45;96953.88;;;18.68;78.66
77706;BME280;66874;45.274;5.880;2023-10-19T10:15:52;96954.94;;;18.76;78.13
77706;BME280;66874;45.274;5.880;2023-10-19T10:18:18;96942.34;;;18.99;77.66
77706;BME280;66874;45.274;5.880;2023-10-19T10:20:44;96931.59;;;18.91;77.34
77706;BME280;66874;45.274;5.880;2023-10-19T10:23:23;96931.69;;;18.80;77.28
77706;BME280;66874;45.274;5.880;2023-10-19T10:25:57;96926.06;;;18.73;77.37
77706;BME280;66874;45.274;5.880;2023-10-19T10:28:23;96929.19;;;18.88;77.46
77706;BME280;66874;45.274;5.880;2023-10-19T10:36:08;96906.91;;;19.50;75.76
77706;BME280;66874;45.274;5.880;2023-10-19T10:38:34;96900.19;;;19.46;75.66
77706;BME280;66874;45.274;5.880;2023-10-19T10:41:03;96895.91;;;19.74;75.10
77706;BME280;66874;45.274;5.880;2023-10-19T10:43:29;96881.25;;;19.70;74.88
77706;BME280;66874;45.274;5.880;2023-10-19T10:46:05;96879.88;;;19.76;74.80
77706;BME280;66874;45.274;5.880;2023-10-19T10:48:32;96881.19;;;20.38;74.22
77706;BME280;66874;45.274;5.880;2023-10-19T10:50:58;96859.16;;;21.03;72.60
77706;BME280;66874;45.274;5.880;2023-10-19T10:53:23;96870.34;;;21.24;72.20
77706;BME280;66874;45.274;5.880;2023-10-19T10:55:53;96864.78;;;21.17;71.75
77706;BME280;66874;45.274;5.880;2023-10-19T10:58:19;96867.84;;;20.95;71.85
77706;BME280;66874;45.274;5.880;2023-10-19T11:00:45;96869.13;;;20.91;71.60
77706;BME280;66874;45.274;5.880;2023-10-19T11:03:16;96856.78;;;20.72;71.75
77706;BME280;66874;45.274;5.880;2023-10-19T11:05:42;96857.91;;;20.60;72.17
77706;BME280;66874;45.274;5.880;2023-10-19T11:08:14;96858.47;;;20.63;72.36
77706;BME280;66874;45.274;5.880;2023-10-19T11:10:46;96841.97;;;20.69;71.94
77706;BME280;66874;45.274;5.880;2023-10-19T11:13:13;96852.06;;;20.56;72.02
77706;BME280;66874;45.274;5.880;2023-10-19T11:15:48;96851.25;;;20.46;72.39
77706;BME280;66874;45.274;5.880;2023-10-19T11:18:32;96835.88;;;20.40;71.90
77706;BME280;66874;45.274;5.880;2023-10-19T11:20:58;96853.53;;;20.21;72.17
77706;BME280;66874;45.274;5.880;2023-10-19T11:23:49;96856.06;;;20.13;72.69
77706;BME280;66874;45.274;5.880;2023-10-19T11:26:20;96836.78;;;20.21;73.13
77706;BME280;66874;45.274;5.880;2023-10-19T11:28:46;96809.34;;;20.50;72.84
77706;BME280;66874;45.274;5.880;2023-10-19T11:31:22;96795.22;;;21.40;71.81
77706;BME280;66874;45.274;5.880;2023-10-19T11:33:49;96814.38;;;22.23;69.70
77706;BME280;66874;45.274;5.880;2023-10-19T11:36:15;96798.63;;;22.64;67.99
77706;BME280;66874;45.274;5.880;2023-10-19T11:38:42;96777.22;;;22.56;67.47
77706;BME280;66874;45.274;5.880;2023-10-19T11:41:10;96762.03;;;22.48;66.79
77706;BME280;66874;45.274;5.880;2023-10-19T11:43:35;96766.78;;;22.28;67.38
77706;BME280;66874;45.274;5.880;2023-10-19T11:46:02;96767.97;;;22.08;67.55
77706;BME280;66874;45.274;5.880;2023-10-19T11:48:30;96775.03;;;21.91;68.21
77706;BME280;66874;45.274;5.880;2023-10-19T11:50:56;96751.66;;;21.77;68.24
77706;BME280;66874;45.274;5.880;2023-10-19T11:53:22;96729.28;;;21.43;68.33
77706;BME280;66874;45.274;5.880;2023-10-19T11:55:47;96744.16;;;21.18;68.55
77706;BME280;66874;45.274;5.880;2023-10-19T12:00:40;96735.56;;;21.25;69.63
77706;BME280;66874;45.274;5.880;2023-10-19T12:03:06;96726.69;;;21.16;69.33
77706;BME280;66874;45.274;5.880;2023-10-19T12:05:32;96721.59;;;21.05;69.42
77706;BME280;66874;45.274;5.880;2023-10-19T12:08:02;96716.88;;;20.98;69.91
77706;BME280;66874;45.274;5.880;2023-10-19T12:10:27;96715.97;;;20.90;69.99
77706;BME280;66874;45.274;5.880;2023-10-19T12:13:02;96704.88;;;20.77;70.40
77706;BME280;66874;45.274;5.880;2023-10-19T12:15:30;96714.69;;;20.76;70.73
77706;BME280;66874;45.274;5.880;2023-10-19T12:17:55;96699.16;;;20.71;70.76
77706;BME280;66874;45.274;5.880;2023-10-19T12:20:20;96675.88;;;20.65;70.29
77706;BME280;66874;45.274;5.880;2023-10-19T12:22:49;96683.50;;;20.51;70.84
77706;BME280;66874;45.274;5.880;2023-10-19T12:25:19;96691.94;;;20.36;70.95
77706;BME280;66874;45.274;5.880;2023-10-19T12:27:44;96687.91;;;20.32;71.42
77706;BME280;66874;45.274;5.880;2023-10-19T12:30:10;96691.47;;;20.23;71.87
77706;BME280;66874;45.274;5.880;2023-10-19T12:32:44;96687.72;;;20.16;71.33
77706;BME280;66874;45.274;5.880;2023-10-19T12:35:10;96687.44;;;20.19;70.91
77706;BME280;66874;45.274;5.880;2023-10-19T12:37:37;96649.19;;;20.12;70.98
77706;BME280;66874;45.274;5.880;2023-10-19T12:40:14;96652.88;;;20.01;71.01
77706;BME280;66874;45.274;5.880;2023-10-19T12:42:55;96644.91;;;20.01;71.27
77706;BME280;66874;45.274;5.880;2023-10-19T12:45:27;96641.44;;;20.00;71.14
77706;BME280;66874;45.274;5.880;2023-10-19T12:47:52;96643.00;;;19.93;70.92
77706;BME280;66874;45.274;5.880;2023-10-19T12:50:18;96604.84;;;19.94;71.11
77706;BME280;66874;45.274;5.880;2023-10-19T12:52:52;96594.69;;;19.90;71.04
77706;BME280;66874;45.274;5.880;2023-10-19T12:55:18;96599.63;;;19.85;71.64
77706;BME280;66874;45.274;5.880;2023-10-19T12:57:43;96612.50;;;19.80;72.20
77706;BME280;66874;45.274;5.880;2023-10-19T13:00:09;96611.50;;;19.81;72.06
77706;BME280;66874;45.274;5.880;2023-10-19T13:02:54;96602.41;;;19.83;72.45
77706;BME280;66874;45.274;5.880;2023-10-19T13:05:27;96582.78;;;19.76;72.25
77706;BME280;66874;45.274;5.880;2023-10-19T13:07:53;96589.75;;;19.67;72.38
77706;BME280;66874;45.274;5.880;2023-10-19T13:10:23;96582.50;;;19.60;72.75
77706;BME280;66874;45.274;5.880;2023-10-19T13:12:48;96592.19;;;19.51;72.96
77706;BME280;66874;45.274;5.880;2023-10-19T13:15:14;96593.63;;;19.45;73.48
77706;BME280;66874;45.274;5.880;2023-10-19T13:17:40;96586.50;;;19.46;73.36
77706;BME280;66874;45.274;5.880;2023-10-19T13:20:07;96560.81;;;19.46;73.28
77706;BME280;66874;45.274;5.880;2023-10-19T13:22:43;96567.03;;;19.55;70.79
77706;BME280;66874;45.274;5.880;2023-10-19T13:25:09;96565.38;;;19.91;67.06
77706;BME280;66874;45.274;5.880;2023-10-19T13:27:38;96574.59;;;20.33;65.38
77706;BME280;66874;45.274;5.880;2023-10-19T13:30:06;96578.41;;;20.30;66.16